createdAt,value
2019-02-18T00:02:12.626Z,83.80
2019-02-18T00:04:40.923Z,86.77
2019-02-18T00:07:14.621Z,85.03
2019-02-18T00:09:39.605Z,78.77
2019-02-18T00:12:08.191Z,75.63
2019-02-18T00:14:36.893Z,88.77
2019-02-18T00:17:05.569Z,112.20
2019-02-18T00:19:34.151Z,116.67
2019-02-18T00:22:02.840Z,118.03
2019-02-18T00:24:31.532Z,113.97
2019-02-18T00:26:59.912Z,117.00
2019-02-18T00:29:28.218Z,113.73
2019-02-18T00:31:56.857Z,109.70
2019-02-18T00:34:25.154Z,111.33
2019-02-18T00:36:53.719Z,109.23
2019-02-18T00:39:22.123Z,118.57
2019-02-18T00:41:50.513Z,98.73
2019-02-18T00:44:18.910Z,104.93
2019-02-18T00:46:47.548Z,116.43
2019-02-18T00:49:16.145Z,127.43
2019-02-18T00:51:44.461Z,120.87
2019-02-18T00:54:13.093Z,130.90
2019-02-18T00:56:41.391Z,123.17
2019-02-18T00:59:09.950Z,126.80
2019-02-18T01:01:38.271Z,122.97
2019-02-18T01:04:06.586Z,122.40
2019-02-18T01:06:34.905Z,125.67
2019-02-18T01:09:04.775Z,116.60
2019-02-18T01:11:33.073Z,110.97
2019-02-18T01:14:01.779Z,124.67
2019-02-18T01:16:30.078Z,138.27
2019-02-18T01:18:58.373Z,139.73
2019-02-18T01:21:26.782Z,108.80
2019-02-18T01:23:55.315Z,79.73
2019-02-18T01:26:23.611Z,94.70
2019-02-18T01:28:52.443Z,96.67
2019-02-18T01:31:21.344Z,94.87
2019-02-18T01:33:49.691Z,100.90
2019-02-18T01:36:18.301Z,93.73
2019-02-18T01:39:06.162Z,100.53
2019-02-18T01:41:34.436Z,102.87
2019-02-18T01:44:02.742Z,100.97
2019-02-18T01:46:31.086Z,93.87
2019-02-18T01:48:59.747Z,96.27
2019-02-18T01:51:28.027Z,96.83
2019-02-18T01:53:56.349Z,89.63
2019-02-18T01:56:24.707Z,86.47
2019-02-18T01:58:52.983Z,85.23
2019-02-18T02:01:21.642Z,83.90
2019-02-18T02:03:49.948Z,84.30
2019-02-18T02:06:18.239Z,75.60
2019-02-18T02:08:46.522Z,78.10
2019-02-18T02:11:14.834Z,76.60
2019-02-18T02:13:43.122Z,76.73
2019-02-18T02:16:11.715Z,77.07
2019-02-18T02:18:40.293Z,76.30
2019-02-18T02:21:08.597Z,70.07
2019-02-18T02:23:39.297Z,71.83
2019-02-18T02:26:07.590Z,74.50
2019-02-18T02:28:35.879Z,71.53
2019-02-18T02:31:04.199Z,71.97
2019-02-18T02:33:32.478Z,71.37
2019-02-18T02:36:00.790Z,72.40
2019-02-18T02:38:29.066Z,66.97
2019-02-18T02:40:57.761Z,65.97
2019-02-18T02:43:26.055Z,68.23
2019-02-18T02:45:54.429Z,64.77
2019-02-18T02:48:22.998Z,63.73
2019-02-18T02:50:51.584Z,61.73
2019-02-18T02:53:21.522Z,62.60
2019-02-18T02:55:49.789Z,60.57
2019-02-18T02:58:18.452Z,61.53
2019-02-18T03:00:47.052Z,59.40
2019-02-18T03:03:15.336Z,56.47
2019-02-18T03:05:43.630Z,53.60
2019-02-18T03:08:20.026Z,57.23
2019-02-18T03:10:42.298Z,55.47
2019-02-18T03:13:10.588Z,54.03
2019-02-18T03:15:38.886Z,54.37
2019-02-18T03:18:07.170Z,52.63
2019-02-18T03:20:35.546Z,52.57
2019-02-18T03:23:03.854Z,51.17
2019-02-18T03:25:33.098Z,54.50
2019-02-18T03:28:25.487Z,54.33
2019-02-18T03:31:02.845Z,49.67
2019-02-18T03:33:46.450Z,47.90
2019-02-18T03:36:14.843Z,47.37
2019-02-18T03:38:43.187Z,49.50
2019-02-18T03:41:11.792Z,47.50
2019-02-18T03:43:40.099Z,46.57
2019-02-18T03:46:08.387Z,46.93
2019-02-18T03:48:36.673Z,45.20
2019-02-18T03:51:04.965Z,43.70
2019-02-18T03:53:33.275Z,46.27
2019-02-18T03:56:01.565Z,45.73
2019-02-18T03:58:29.943Z,42.70
2019-02-18T04:00:58.289Z,41.47
2019-02-18T04:03:26.890Z,42.73
2019-02-18T04:05:55.574Z,40.30
2019-02-18T04:08:23.889Z,41.00
2019-02-18T04:10:52.541Z,40.77
2019-02-18T04:13:20.838Z,39.07
2019-02-18T04:15:49.407Z,40.87
2019-02-18T04:18:18.086Z,40.73
2019-02-18T04:20:46.365Z,38.23
2019-02-18T04:23:14.655Z,38.27
2019-02-18T04:25:43.331Z,36.00
2019-02-18T04:28:11.629Z,35.83
2019-02-18T04:30:39.931Z,35.20
2019-02-18T04:33:08.220Z,36.97
2019-02-18T04:35:36.526Z,35.97
2019-02-18T04:38:04.811Z,34.83
2019-02-18T04:40:33.603Z,33.63
2019-02-18T04:43:02.183Z,33.73
2019-02-18T04:45:30.780Z,33.40
2019-02-18T04:47:59.150Z,32.80
2019-02-18T04:50:27.501Z,34.27
2019-02-18T04:52:55.810Z,32.20
2019-02-18T04:55:24.391Z,31.60
2019-02-18T04:57:52.679Z,31.80
2019-02-18T05:00:21.217Z,29.77
2019-02-18T05:02:49.573Z,30.43
2019-02-18T05:05:18.209Z,31.90
2019-02-18T05:07:46.578Z,32.53
2019-02-18T05:10:14.871Z,30.03
2019-02-18T05:12:43.159Z,30.10
2019-02-18T05:15:11.472Z,30.97
2019-02-18T05:17:39.775Z,28.23
2019-02-18T05:20:08.730Z,27.93
2019-02-18T05:22:37.025Z,28.20
2019-02-18T05:25:06.989Z,29.47
2019-02-18T05:27:35.372Z,27.27
2019-02-18T05:30:05.006Z,26.60
2019-02-18T05:32:33.674Z,26.10
2019-02-18T05:35:02.248Z,27.60
2019-02-18T05:37:30.827Z,27.73
2019-02-18T05:39:59.115Z,24.20
2019-02-18T05:42:27.683Z,26.67
2019-02-18T05:44:55.984Z,26.47
2019-02-18T05:47:24.266Z,24.63
2019-02-18T05:49:52.924Z,24.30
2019-02-18T05:52:21.512Z,24.37
2019-02-18T05:54:49.813Z,24.73
2019-02-18T05:57:18.371Z,25.30
2019-02-18T05:59:46.737Z,24.17
2019-02-18T06:02:15.331Z,29.40
2019-02-18T06:04:43.650Z,30.90
2019-02-18T06:07:12.296Z,33.53
2019-02-18T06:09:40.881Z,35.13
2019-02-18T06:12:09.162Z,37.77
2019-02-18T06:14:37.457Z,36.57
2019-02-18T06:17:05.738Z,42.03
2019-02-18T06:19:34.031Z,36.40
2019-02-18T06:22:02.318Z,38.70
2019-02-18T06:24:30.948Z,35.53
2019-02-18T06:26:59.231Z,38.77
2019-02-18T06:29:27.539Z,39.40
2019-02-18T06:31:55.840Z,37.40
2019-02-18T06:34:24.463Z,31.97
2019-02-18T06:36:53.049Z,34.10
2019-02-18T06:39:21.358Z,30.17
2019-02-18T06:41:49.906Z,30.37
2019-02-18T06:44:19.825Z,31.83
2019-02-18T06:46:52.626Z,36.30
2019-02-18T06:49:21.191Z,38.60
2019-02-18T06:51:49.773Z,39.03
2019-02-18T06:54:18.363Z,28.27
2019-02-18T06:56:54.061Z,29.70
2019-02-18T06:59:26.990Z,37.30
2019-02-18T07:01:59.979Z,31.33
2019-02-18T07:04:41.949Z,27.60
2019-02-18T07:07:28.686Z,29.97
2019-02-18T07:09:58.646Z,28.07
2019-02-18T07:12:34.878Z,26.27
2019-02-18T07:15:03.182Z,27.47
2019-02-18T07:17:31.731Z,25.63
2019-02-18T07:20:00.338Z,24.53
2019-02-18T07:22:28.825Z,23.37
2019-02-18T07:24:57.132Z,20.33
2019-02-18T07:27:25.444Z,23.00
2019-02-18T07:29:53.724Z,22.87
2019-02-18T07:32:22.302Z,22.23
2019-02-18T07:34:50.592Z,19.90
2019-02-18T07:37:18.899Z,22.43
2019-02-18T07:39:47.204Z,20.03
2019-02-18T07:42:15.487Z,20.73
2019-02-18T07:44:43.791Z,19.97
2019-02-18T07:47:12.379Z,19.53
2019-02-18T07:49:40.667Z,16.63
2019-02-18T07:52:08.979Z,18.87
2019-02-18T07:54:37.614Z,20.07
2019-02-18T07:57:06.202Z,16.73
2019-02-18T07:59:34.784Z,15.60
2019-02-18T08:02:03.084Z,16.60
2019-02-18T08:04:31.643Z,15.83
2019-02-18T08:06:59.952Z,19.77
2019-02-18T08:09:28.606Z,16.50
2019-02-18T08:11:56.893Z,19.67
2019-02-18T08:14:25.465Z,15.70
2019-02-18T08:16:53.751Z,21.83
2019-02-18T08:19:22.327Z,15.27
2019-02-18T08:21:50.625Z,14.93
2019-02-18T08:24:18.918Z,21.67
2019-02-18T08:26:47.575Z,15.23
2019-02-18T08:29:15.874Z,13.73
2019-02-18T08:31:44.434Z,15.13
2019-02-18T08:34:13.006Z,13.40
2019-02-18T08:36:41.597Z,19.53
2019-02-18T08:39:10.175Z,12.80
2019-02-18T08:41:38.532Z,12.60
2019-02-18T08:44:07.140Z,12.97
2019-02-18T08:46:35.723Z,13.63
2019-02-18T08:49:04.031Z,11.30
2019-02-18T08:51:32.303Z,13.37
2019-02-18T08:54:00.599Z,12.13
2019-02-18T08:56:29.236Z,11.67
2019-02-18T08:58:57.541Z,13.93
2019-02-18T09:01:25.817Z,14.10
2019-02-18T09:03:54.179Z,11.60
2019-02-18T09:06:22.754Z,13.40
2019-02-18T09:08:51.336Z,12.47
2019-02-18T09:11:19.924Z,12.47
2019-02-18T09:13:48.235Z,17.57
2019-02-18T09:16:16.509Z,15.97
2019-02-18T09:18:44.817Z,22.63
2019-02-18T09:21:13.444Z,38.37
2019-02-18T09:23:43.424Z,58.97
2019-02-18T09:26:13.344Z,56.13
2019-02-18T09:28:41.638Z,55.93
2019-02-18T09:31:09.945Z,40.07
2019-02-18T09:33:40.003Z,32.40
2019-02-18T09:36:08.627Z,27.67
2019-02-18T09:38:36.917Z,27.80
2019-02-18T09:41:05.494Z,31.03
2019-02-18T09:43:34.068Z,32.40
2019-02-18T09:46:02.726Z,30.90
2019-02-18T09:48:32.709Z,30.30
2019-02-18T09:51:01.034Z,28.40
2019-02-18T09:53:29.640Z,22.50
2019-02-18T09:55:58.223Z,25.83
2019-02-18T09:58:28.100Z,26.27
2019-02-18T10:00:56.724Z,25.47
2019-02-18T10:03:31.506Z,28.83
2019-02-18T10:05:58.198Z,25.97
2019-02-18T10:08:26.782Z,24.73
2019-02-18T10:10:56.153Z,24.87
2019-02-18T10:13:24.664Z,22.03
2019-02-18T10:15:53.245Z,24.23
2019-02-18T10:18:21.824Z,23.70
2019-02-18T10:20:50.410Z,24.73
2019-02-18T10:23:19.038Z,23.20
2019-02-18T10:25:47.682Z,35.17
2019-02-18T10:28:15.990Z,28.53
2019-02-18T10:30:44.367Z,35.00
2019-02-18T10:33:13.096Z,26.83
2019-02-18T10:35:41.648Z,29.60
2019-02-18T10:38:10.271Z,30.47
2019-02-18T10:40:38.910Z,26.30
2019-02-18T10:43:07.225Z,25.90
2019-02-18T10:45:35.530Z,27.40
2019-02-18T10:48:04.155Z,23.30
2019-02-18T10:50:32.471Z,27.67
2019-02-18T10:53:01.327Z,25.57
2019-02-18T10:55:29.819Z,26.27
2019-02-18T11:01:39.775Z,23.87
2019-02-18T11:04:08.363Z,21.37
2019-02-18T11:06:36.663Z,22.93
2019-02-18T11:09:09.011Z,26.37
2019-02-18T11:11:37.599Z,19.47
2019-02-18T11:14:05.935Z,24.73
2019-02-18T11:16:34.610Z,21.73
2019-02-18T11:19:02.924Z,27.90
2019-02-18T11:21:31.633Z,25.87
2019-02-18T11:23:59.985Z,23.93
2019-02-18T11:26:28.271Z,25.23
2019-02-18T11:28:56.570Z,20.93
2019-02-18T11:31:25.332Z,24.43
2019-02-18T11:33:53.922Z,20.63
2019-02-18T11:36:22.510Z,19.73
2019-02-18T11:38:50.817Z,22.67
2019-02-18T11:41:27.026Z,17.37
2019-02-18T11:43:49.213Z,22.20
2019-02-18T11:46:18.285Z,22.07
2019-02-18T11:48:46.599Z,22.87
2019-02-18T11:51:14.881Z,20.83
2019-02-18T11:53:43.634Z,18.97
2019-02-18T11:56:11.916Z,21.20
2019-02-18T11:58:40.220Z,16.23
2019-02-18T12:01:09.184Z,20.53
2019-02-18T12:03:37.567Z,24.37
2019-02-18T12:06:05.858Z,25.20
2019-02-18T12:08:34.210Z,33.53
2019-02-18T12:11:02.537Z,46.60
2019-02-18T12:13:31.274Z,48.20
2019-02-18T12:16:00.054Z,46.20
2019-02-18T12:18:31.118Z,41.40
2019-02-18T12:20:59.169Z,44.57
2019-02-18T12:23:29.138Z,41.17
2019-02-18T12:25:57.443Z,42.67
2019-02-18T12:28:25.763Z,43.67
2019-02-18T12:30:54.428Z,51.93
2019-02-18T12:33:23.038Z,49.10
2019-02-18T12:35:51.690Z,49.57
2019-02-18T12:38:20.276Z,51.07
2019-02-18T12:40:48.578Z,46.30
2019-02-18T12:43:17.139Z,44.77
2019-02-18T12:45:45.464Z,40.37
2019-02-18T12:48:14.094Z,44.57
2019-02-18T12:50:42.383Z,49.80
2019-02-18T12:53:11.015Z,48.60
2019-02-18T12:55:39.647Z,45.57
2019-02-18T12:58:08.035Z,45.40
2019-02-18T13:00:36.400Z,45.00
2019-02-18T13:03:05.394Z,46.07
2019-02-18T13:05:33.773Z,47.53
2019-02-18T13:08:02.868Z,50.90
2019-02-18T13:10:34.882Z,50.07
2019-02-18T13:13:01.983Z,51.57
2019-02-18T13:15:30.675Z,56.17
2019-02-18T13:17:59.465Z,64.17
2019-02-18T13:20:28.147Z,62.40
2019-02-18T13:22:56.513Z,65.47
2019-02-18T13:25:25.211Z,62.27
2019-02-18T13:27:53.897Z,60.53
2019-02-18T13:30:22.255Z,59.87
2019-02-18T13:32:50.625Z,56.33
2019-02-18T13:35:18.999Z,57.13
2019-02-18T13:37:47.303Z,59.73
2019-02-18T13:40:16.330Z,61.43
2019-02-18T13:42:45.005Z,53.93
2019-02-18T13:45:15.429Z,53.30
2019-02-18T13:47:43.735Z,57.80
2019-02-18T13:50:14.962Z,56.53
2019-02-18T13:52:43.544Z,52.87
2019-02-18T13:55:13.030Z,58.17
2019-02-18T13:57:41.816Z,59.33
2019-02-18T14:00:19.668Z,52.37
2019-02-18T14:02:48.915Z,47.50
2019-02-18T14:05:23.743Z,46.43
2019-02-18T14:07:55.402Z,41.70
2019-02-18T14:10:25.596Z,43.43
2019-02-18T14:12:53.942Z,52.97
2019-02-18T14:15:23.955Z,53.17
2019-02-18T14:17:52.319Z,46.03
2019-02-18T14:20:20.646Z,41.07
2019-02-18T14:22:49.363Z,44.10
2019-02-18T14:25:22.859Z,44.40
2019-02-18T14:27:51.552Z,39.33
2019-02-18T14:30:19.857Z,42.13
2019-02-18T14:32:48.506Z,42.53
2019-02-18T14:35:18.714Z,42.30
2019-02-18T14:37:50.899Z,37.93
2019-02-18T14:40:21.430Z,39.73
2019-02-18T14:42:50.129Z,37.27
2019-02-18T14:45:18.833Z,37.20
2019-02-18T14:47:47.490Z,37.37
2019-02-18T14:50:18.831Z,36.73
2019-02-18T14:52:47.584Z,39.27
2019-02-18T14:55:15.952Z,39.60
2019-02-18T14:57:44.687Z,39.87
2019-02-18T15:00:19.590Z,36.10
2019-02-18T15:02:48.125Z,46.17
2019-02-18T15:05:16.802Z,37.03
2019-02-18T15:07:45.572Z,34.87
2019-02-18T15:10:14.994Z,35.23
2019-02-18T15:12:43.363Z,39.50
2019-02-18T15:15:11.958Z,33.73
2019-02-18T15:17:40.631Z,35.53
2019-02-18T15:20:11.355Z,37.67
2019-02-18T15:22:39.454Z,29.73
2019-02-18T15:25:09.336Z,36.43
2019-02-18T15:27:38.049Z,40.10
2019-02-18T15:30:12.520Z,45.83
2019-02-18T15:32:40.802Z,41.73
2019-02-18T15:35:09.420Z,45.93
2019-02-18T15:37:37.720Z,44.73
2019-02-18T15:40:09.487Z,46.17
2019-02-18T15:42:42.320Z,48.80
2019-02-18T15:45:08.691Z,45.40
2019-02-18T15:47:37.077Z,47.57
2019-02-18T15:50:10.884Z,44.90
2019-02-18T15:52:39.574Z,49.93
2019-02-18T15:55:08.704Z,46.47
2019-02-18T15:57:37.125Z,40.83
2019-02-18T16:00:08.990Z,41.73
2019-02-18T16:02:37.565Z,39.77
2019-02-18T16:05:06.434Z,43.27
2019-02-18T16:07:35.165Z,38.87
2019-02-18T16:10:04.703Z,41.73
2019-02-18T16:12:33.343Z,43.33
2019-02-18T16:15:01.882Z,49.63
2019-02-18T16:17:30.250Z,51.77
2019-02-18T16:19:58.650Z,47.90
2019-02-18T16:22:27.023Z,46.53
2019-02-18T16:24:55.308Z,52.50
2019-02-18T16:27:23.863Z,49.67
2019-02-18T16:29:52.223Z,42.67
2019-02-18T16:32:20.504Z,37.20
2019-02-18T16:34:48.882Z,32.87
2019-02-18T16:37:17.583Z,33.37
2019-02-18T16:39:46.227Z,39.93
2019-02-18T16:42:14.919Z,42.20
2019-02-18T16:44:43.290Z,42.50
2019-02-18T16:47:11.702Z,39.93
2019-02-18T16:49:40.357Z,52.83
2019-02-18T16:52:09.448Z,52.27
2019-02-18T16:54:37.829Z,65.73
2019-02-18T16:57:06.127Z,69.93
2019-02-18T16:59:34.782Z,64.27
2019-02-18T17:02:03.112Z,67.20
2019-02-18T17:04:31.474Z,69.73
2019-02-18T17:07:00.443Z,69.83
2019-02-18T17:09:29.119Z,69.33
2019-02-18T17:11:57.670Z,75.33
2019-02-18T17:14:26.402Z,113.17
2019-02-18T17:16:54.992Z,129.07
2019-02-18T17:19:23.676Z,104.37
2019-02-18T17:21:52.044Z,108.63
2019-02-18T17:24:21.134Z,100.63
2019-02-18T17:26:49.704Z,101.23
2019-02-18T17:29:18.406Z,105.40
2019-02-18T17:31:47.097Z,103.73
2019-02-18T17:34:15.478Z,101.73
2019-02-18T17:36:44.055Z,93.77
2019-02-18T17:39:13.047Z,99.53
2019-02-18T17:41:41.411Z,96.40
2019-02-18T17:44:09.697Z,96.67
2019-02-18T17:46:38.082Z,95.03
2019-02-18T17:49:06.777Z,91.47
2019-02-18T17:51:35.558Z,98.13
2019-02-18T17:54:04.191Z,88.97
2019-02-18T17:56:33.046Z,91.43
2019-02-18T17:59:01.335Z,104.50
2019-02-18T18:01:29.739Z,88.27
2019-02-18T18:03:58.434Z,100.10
2019-02-18T18:06:27.000Z,116.67
2019-02-18T18:08:58.415Z,119.57
2019-02-18T18:11:27.397Z,115.77
2019-02-18T18:13:56.086Z,124.73
2019-02-18T18:16:24.775Z,114.77
2019-02-18T18:18:53.167Z,115.93
2019-02-18T18:21:21.495Z,114.53
2019-02-18T18:23:50.232Z,110.70
2019-02-18T18:26:18.626Z,128.20
2019-02-18T18:28:47.299Z,141.90
2019-02-18T18:31:15.879Z,157.87
2019-02-18T18:33:44.565Z,166.23
2019-02-18T18:36:13.324Z,170.53
2019-02-18T18:38:41.731Z,170.80
2019-02-18T18:41:10.422Z,167.43
2019-02-18T18:43:39.304Z,170.30
2019-02-18T18:46:07.633Z,159.17
2019-02-18T18:48:36.263Z,173.70
2019-02-18T18:51:04.580Z,179.00
2019-02-18T18:53:32.876Z,163.83
2019-02-18T18:56:01.192Z,158.93
2019-02-18T18:58:30.292Z,165.40
2019-02-18T19:00:58.886Z,156.30
2019-02-18T19:03:27.564Z,166.37
2019-02-18T19:05:56.160Z,146.40
2019-02-18T19:08:24.947Z,146.23
2019-02-18T19:10:53.298Z,166.63
2019-02-18T19:13:22.336Z,151.67
2019-02-18T19:15:51.127Z,144.37
2019-02-18T19:18:19.785Z,133.83
2019-02-18T19:20:48.416Z,139.83
2019-02-18T19:23:17.475Z,129.13
2019-02-18T19:25:45.899Z,130.17
2019-02-18T19:28:15.063Z,130.23
2019-02-18T19:30:43.463Z,127.77
2019-02-18T19:36:40.114Z,125.17
2019-02-18T19:39:08.623Z,123.40
2019-02-18T19:41:37.403Z,114.00
2019-02-18T19:44:06.211Z,117.73
2019-02-18T19:46:34.780Z,114.13
2019-02-18T19:49:03.583Z,117.77
2019-02-18T19:51:32.060Z,115.13
2019-02-18T19:54:02.374Z,122.90
2019-02-18T19:56:30.831Z,128.90
2019-02-18T19:58:59.218Z,129.87
2019-02-18T20:01:27.754Z,127.97
2019-02-18T20:03:56.411Z,136.53
2019-02-18T20:09:56.995Z,135.77
2019-02-18T20:12:25.370Z,135.23
2019-02-18T20:14:53.931Z,148.60
2019-02-18T20:17:22.546Z,148.33
2019-02-18T20:19:51.243Z,147.57
2019-02-18T20:22:19.920Z,146.97
2019-02-18T20:24:48.539Z,135.97
2019-02-18T20:27:17.231Z,130.23
2019-02-18T20:29:45.617Z,113.33
2019-02-18T20:32:14.363Z,106.73
2019-02-18T20:34:42.949Z,101.73
2019-02-18T20:37:11.622Z,95.87
2019-02-18T20:39:40.044Z,88.07
2019-02-18T20:42:08.440Z,94.43
2019-02-18T20:44:36.805Z,98.40
2019-02-18T20:47:05.116Z,94.57
2019-02-18T20:49:33.940Z,103.70
2019-02-18T20:52:02.724Z,104.37
2019-02-18T20:54:31.048Z,100.40
2019-02-18T20:56:59.482Z,94.23
2019-02-18T20:59:28.053Z,88.97
2019-02-18T21:01:56.359Z,85.17
2019-02-18T21:04:25.426Z,113.27
2019-02-18T21:06:53.823Z,154.27
2019-02-18T21:09:22.115Z,135.13
2019-02-18T21:11:50.774Z,136.10
2019-02-18T21:14:19.054Z,118.07
2019-02-18T21:16:47.636Z,121.83
2019-02-18T21:19:15.972Z,126.77
2019-02-18T21:21:44.327Z,130.00
2019-02-18T21:24:12.705Z,124.63
2019-02-18T21:26:41.011Z,133.80
2019-02-18T21:29:09.731Z,130.17
2019-02-18T21:31:38.025Z,126.13
2019-02-18T21:34:06.315Z,113.67
2019-02-18T21:36:35.120Z,121.60
2019-02-18T21:39:05.699Z,120.70
2019-02-18T21:41:34.300Z,119.47
2019-02-18T21:44:02.875Z,118.33
2019-02-18T21:46:31.299Z,118.93
2019-02-18T21:48:59.619Z,116.57
2019-02-18T21:51:28.244Z,118.27
2019-02-18T21:53:56.801Z,109.60
2019-02-18T21:56:26.086Z,187.17
2019-02-18T21:58:54.395Z,131.73
2019-02-18T22:01:22.768Z,109.60
2019-02-18T22:03:51.066Z,120.27
2019-02-18T22:06:19.816Z,143.93
2019-02-18T22:08:48.135Z,140.77
2019-02-18T22:11:16.517Z,134.30
2019-02-18T22:13:44.845Z,131.30
2019-02-18T22:16:13.258Z,126.03
2019-02-18T22:18:41.550Z,125.63
2019-02-18T22:21:10.299Z,126.13
2019-02-18T22:23:38.983Z,120.07
2019-02-18T22:26:07.568Z,120.17
2019-02-18T22:28:36.156Z,127.03
2019-02-18T22:31:04.743Z,112.83
2019-02-18T22:33:33.065Z,117.27
2019-02-18T22:36:01.393Z,121.23
2019-02-18T22:38:30.087Z,115.67
2019-02-18T22:40:59.064Z,117.60
2019-02-18T22:43:27.442Z,117.87
2019-02-18T22:45:55.750Z,111.20
2019-02-18T22:48:24.302Z,111.37
2019-02-18T22:50:52.605Z,113.83
2019-02-18T22:53:20.998Z,111.50
2019-02-18T22:55:49.567Z,119.87
2019-02-18T22:58:18.581Z,110.70
2019-02-18T23:00:54.693Z,120.77
2019-02-18T23:03:23.508Z,113.70
2019-02-18T23:05:51.795Z,128.03
2019-02-18T23:08:20.448Z,151.43
2019-02-18T23:10:48.742Z,164.70
2019-02-18T23:13:17.538Z,167.17
2019-02-18T23:15:46.094Z,143.33
2019-02-18T23:18:14.814Z,143.03
2019-02-18T23:20:43.477Z,151.07
2019-02-18T23:23:12.170Z,153.03
2019-02-18T23:25:40.473Z,138.50
2019-02-18T23:28:09.115Z,92.90
2019-02-18T23:30:38.107Z,94.83
2019-02-18T23:33:06.402Z,108.23
2019-02-18T23:35:34.992Z,105.47
2019-02-18T23:38:03.550Z,120.27
2019-02-18T23:40:32.133Z,118.57
2019-02-18T23:43:00.678Z,124.40
2019-02-18T23:45:29.007Z,125.13
2019-02-18T23:47:57.578Z,119.27
2019-02-18T23:50:25.883Z,124.30
2019-02-18T23:52:54.555Z,112.20
2019-02-18T23:55:22.844Z,112.23
2019-02-18T23:57:51.146Z,108.53
